Time;durP1;ratioP1;P1;durP2;ratioP2;P2;SDS_P1;SDS_P2;PMS_P1;PMS_P2;Temp;Humidity;BMP_temperature;BMP_pressure;BME280_temperature;BME280_humidity;BME280_pressure;Samples;Min_cycle;Max_cycle;Signal;HPM_P1;HPM_P2
2021/05/30 00:00:48;;;;;;;19.13;7.07;;;15.10;70.00;;;;;;6152672;23;20013;-63
2021/05/30 00:03:14;;;;;;;11.93;4.95;;;15.20;68.30;;;;;;6125357;23;20021;-63
2021/05/30 00:05:40;;;;;;;15.38;8.40;;;15.00;67.40;;;;;;6152723;23;20018;-64
2021/05/30 00:08:07;;;;;;;16.30;9.13;;;15.00;68.90;;;;;;6125437;23;20033;-64
2021/05/30 00:10:33;;;;;;;19.10;8.35;;;15.20;69.90;;;;;;6151873;23;20020;-64
2021/05/30 00:12:59;;;;;;;12.90;6.57;;;15.20;69.10;;;;;;6152238;23;20021;-64
2021/05/30 00:15:25;;;;;;;13.45;7.90;;;15.20;68.70;;;;;;6151167;23;20320;-63
2021/05/30 00:17:51;;;;;;;17.63;8.38;;;15.30;68.80;;;;;;6151276;23;20313;-63
2021/05/30 00:20:17;;;;;;;13.88;8.32;;;15.30;69.30;;;;;;6151678;23;20013;-64
2021/05/30 00:22:43;;;;;;;13.40;6.57;;;15.40;69.10;;;;;;6151865;23;20088;-63
2021/05/30 00:25:10;;;;;;;15.40;9.15;;;15.30;67.30;;;;;;6151676;23;20089;-64
2021/05/30 00:27:37;;;;;;;11.38;6.90;;;15.30;69.20;;;;;;6152279;23;20013;-64
2021/05/30 00:30:04;;;;;;;14.98;7.40;;;15.40;68.50;;;;;;6153826;23;20037;-65
2021/05/30 00:32:32;;;;;;;18.42;7.53;;;15.30;68.70;;;;;;6150986;23;20529;-64
2021/05/30 00:34:58;;;;;;;12.27;5.55;;;15.30;69.20;;;;;;6126445;23;20021;-64
2021/05/30 00:37:24;;;;;;;12.90;6.60;;;15.20;68.20;;;;;;6153416;23;20459;-64
2021/05/30 00:39:50;;;;;;;14.45;7.32;;;15.00;68.10;;;;;;6152519;23;20026;-64
2021/05/30 00:42:15;;;;;;;10.57;6.57;;;14.90;69.40;;;;;;6151517;23;20013;-64
2021/05/30 00:44:41;;;;;;;15.45;7.78;;;15.10;69.80;;;;;;6153598;23;20025;-64
2021/05/30 00:47:07;;;;;;;15.30;5.13;;;15.30;69.50;;;;;;6152020;23;20017;-63
2021/05/30 00:49:33;;;;;;;9.05;5.22;;;15.40;67.90;;;;;;6151110;23;20076;-62
2021/05/30 00:51:59;;;;;;;16.50;6.97;;;15.40;66.60;;;;;;6151232;23;20049;-62
2021/05/30 00:54:26;;;;;;;9.32;6.63;;;15.30;67.90;;;;;;6153308;23;20028;-63
2021/05/30 00:56:52;;;;;;;17.95;5.75;;;15.50;68.70;;;;;;6152005;23;20013;-63
2021/05/30 00:59:18;;;;;;;13.30;6.22;;;15.60;66.60;;;;;;6151191;23;20056;-63
2021/05/30 01:01:46;;;;;;;9.45;6.15;;;15.60;66.70;;;;;;6150881;23;20029;-63
2021/05/30 01:04:14;;;;;;;11.75;5.30;;;15.70;67.90;;;;;;6150994;23;20056;-63
2021/05/30 01:06:41;;;;;;;11.32;6.30;;;15.80;67.10;;;;;;6151450;23;20448;-63
2021/05/30 01:09:06;;;;;;;11.43;5.80;;;15.90;67.80;;;;;;6151788;23;20014;-62
2021/05/30 01:11:33;;;;;;;9.10;5.72;;;16.00;66.60;;;;;;6152117;23;20022;-64
2021/05/30 01:13:59;;;;;;;9.07;5.32;;;15.90;66.80;;;;;;6124597;23;20021;-62
2021/05/30 01:16:26;;;;;;;11.38;5.95;;;15.80;67.50;;;;;;6150762;23;20024;-62
2021/05/30 01:18:56;;;;;;;10.13;5.30;;;15.60;67.20;;;;;;6151509;23;20017;-63
2021/05/30 01:21:23;;;;;;;14.48;6.00;;;15.50;67.30;;;;;;6151254;23;20068;-63
2021/05/30 01:23:54;;;;;;;12.32;5.55;;;15.40;68.00;;;;;;6150654;23;20096;-63
2021/05/30 01:26:21;;;;;;;11.07;6.22;;;15.40;68.70;;;;;;6151779;23;20018;-63
2021/05/30 01:28:47;;;;;;;9.90;5.07;;;15.40;68.50;;;;;;6151840;23;20068;-63
2021/05/30 01:31:13;;;;;;;8.95;5.45;;;15.50;68.60;;;;;;6150441;23;20736;-63
2021/05/30 01:33:39;;;;;;;8.93;5.72;;;15.70;67.90;;;;;;6150943;23;20344;-63
2021/05/30 01:36:06;;;;;;;9.82;5.45;;;15.80;67.70;;;;;;6150891;23;20018;-63
2021/05/30 01:38:32;;;;;;;15.02;5.95;;;15.90;67.00;;;;;;6150430;23;20017;-63
2021/05/30 01:40:58;;;;;;;8.88;4.32;;;15.90;67.20;;;;;;6150465;23;20443;-63
2021/05/30 01:43:24;;;;;;;10.45;5.20;;;15.80;66.30;;;;;;6150285;23;20095;-63
2021/05/30 01:45:50;;;;;;;14.15;5.50;;;15.50;65.30;;;;;;6150604;23;20720;-64
2021/05/30 01:48:16;;;;;;;15.18;5.35;;;15.30;64.90;;;;;;6150545;23;20499;-63
2021/05/30 01:50:47;;;;;;;9.02;5.13;;;15.00;65.20;;;;;;6150712;23;20340;-64
2021/05/30 01:53:14;;;;;;;10.38;5.18;;;14.60;67.70;;;;;;6124346;23;20273;-64
2021/05/30 01:56:55;;;;;;;11.07;5.35;;;14.70;69.80;;;;;;6150598;23;20021;-63
2021/05/30 01:58:43;;;;;;;9.35;4.88;;;14.90;70.00;;;;;;6151492;23;20343;-63
2021/05/30 02:01:14;;;;;;;10.43;4.65;;;14.90;68.90;;;;;;6151624;23;20020;-62
2021/05/30 02:03:42;;;;;;;12.80;5.10;;;15.00;68.60;;;;;;6150821;23;20014;-64
2021/05/30 02:06:08;;;;;;;14.30;6.20;;;14.90;66.70;;;;;;6150573;23;20067;-64
2021/05/30 02:08:37;;;;;;;16.15;6.43;;;14.50;66.30;;;;;;6150526;23;20596;-63
2021/05/30 02:11:07;;;;;;;12.30;5.53;;;14.00;67.20;;;;;;6151135;23;20028;-64
2021/05/30 02:13:33;;;;;;;11.30;5.13;;;13.80;70.80;;;;;;6151925;23;20025;-64
2021/05/30 02:15:59;;;;;;;12.65;5.03;;;14.10;72.20;;;;;;6150064;23;20063;-63
2021/05/30 02:18:25;;;;;;;6.95;4.65;;;14.50;70.20;;;;;;6150446;23;20367;-64
2021/05/30 02:20:52;;;;;;;7.88;4.90;;;14.60;69.80;;;;;;6150390;23;20020;-63
2021/05/30 02:23:18;;;;;;;12.65;5.32;;;14.70;70.70;;;;;;6150154;23;20093;-63
2021/05/30 02:25:44;;;;;;;9.95;5.00;;;14.90;69.10;;;;;;6150622;23;20068;-62
2021/05/30 02:28:10;;;;;;;9.52;5.15;;;15.10;69.30;;;;;;6123687;23;20436;-64
2021/05/30 02:30:36;;;;;;;12.45;5.60;;;15.30;69.40;;;;;;6149933;23;20343;-64
2021/05/30 02:33:03;;;;;;;12.68;4.95;;;15.50;67.80;;;;;;6150076;23;20102;-63
2021/05/30 02:35:29;;;;;;;7.32;4.28;;;15.60;67.50;;;;;;6150454;23;20120;-63
2021/05/30 02:37:55;;;;;;;8.38;4.53;;;15.70;67.70;;;;;;6151429;23;20014;-63
2021/05/30 02:40:22;;;;;;;8.30;4.53;;;15.80;67.50;;;;;;6123670;23;20371;-63
2021/05/30 02:42:47;;;;;;;8.52;4.35;;;15.90;67.50;;;;;;6149948;23;20021;-63
2021/05/30 02:45:13;;;;;;;8.57;4.68;;;16.00;67.30;;;;;;6150212;23;20020;-63
2021/05/30 02:47:39;;;;;;;8.43;4.63;;;16.10;67.10;;;;;;6149893;23;20013;-63
2021/05/30 02:50:06;;;;;;;9.50;4.55;;;16.20;66.80;;;;;;6150037;23;20347;-64
2021/05/30 02:52:32;;;;;;;8.82;4.72;;;16.30;66.60;;;;;;6149526;23;20022;-63
2021/05/30 02:54:58;;;;;;;8.07;4.22;;;16.30;66.10;;;;;;6151560;23;20096;-62
2021/05/30 02:57:24;;;;;;;9.07;3.88;;;16.30;66.00;;;;;;6151160;23;20041;-64
2021/05/30 02:59:50;;;;;;;8.95;4.63;;;16.40;65.80;;;;;;6151853;23;20035;-63
2021/05/30 03:02:16;;;;;;;10.27;4.90;;;16.40;65.40;;;;;;6149954;23;20053;-63
2021/05/30 03:04:42;;;;;;;8.93;4.10;;;16.40;65.30;;;;;;6151659;23;20387;-63
2021/05/30 03:07:08;;;;;;;9.35;4.13;;;16.50;65.40;;;;;;6152915;23;20387;-64
2021/05/30 03:09:34;;;;;;;10.07;4.50;;;16.50;65.50;;;;;;6151713;23;20036;-64
2021/05/30 03:12:00;;;;;;;10.13;4.53;;;16.50;65.50;;;;;;6151946;23;20014;-63
2021/05/30 03:14:25;;;;;;;8.88;4.38;;;16.50;65.60;;;;;;6153094;23;20013;-63
2021/05/30 03:16:51;;;;;;;6.30;4.20;;;16.50;65.20;;;;;;6152140;23;20022;-63
2021/05/30 03:19:18;;;;;;;9.98;5.15;;;16.60;65.20;;;;;;6151606;23;20013;-62
2021/05/30 03:21:44;;;;;;;6.63;3.85;;;16.70;65.10;;;;;;6151616;23;20115;-62
2021/05/30 03:24:10;;;;;;;6.97;3.75;;;16.70;65.10;;;;;;6126836;23;20428;-63
2021/05/30 03:26:36;;;;;;;8.32;4.35;;;16.70;64.70;;;;;;6151743;23;20014;-63
2021/05/30 03:29:03;;;;;;;14.80;4.65;;;16.80;64.70;;;;;;6151794;23;20017;-63
2021/05/30 03:31:29;;;;;;;13.98;4.80;;;16.80;64.50;;;;;;6152038;23;20467;-63
2021/05/30 03:33:55;;;;;;;6.60;3.30;;;16.80;64.80;;;;;;6153620;23;20025;-63
2021/05/30 03:36:25;;;;;;;12.73;4.15;;;16.80;64.60;;;;;;6152594;23;20018;-64
2021/05/30 03:39:00;;;;;;;8.00;3.83;;;16.90;64.60;;;;;;6152613;23;20498;-63
2021/05/30 03:41:32;;;;;;;8.38;3.72;;;16.90;64.30;;;;;;6153719;23;20009;-63
2021/05/30 03:43:58;;;;;;;7.88;4.13;;;17.00;64.20;;;;;;6152761;23;20094;-63
2021/05/30 03:46:24;;;;;;;11.02;4.43;;;17.00;64.00;;;;;;6151361;23;20447;-63
2021/05/30 03:48:50;;;;;;;8.50;4.25;;;17.00;63.30;;;;;;6153873;23;20041;-63
2021/05/30 03:51:16;;;;;;;8.13;4.18;;;17.00;63.10;;;;;;6151412;23;20072;-63
2021/05/30 03:53:42;;;;;;;7.25;3.80;;;17.00;63.40;;;;;;6152001;23;20017;-64
2021/05/30 03:56:08;;;;;;;8.73;4.75;;;16.90;63.60;;;;;;6151438;23;20898;-63
2021/05/30 03:58:34;;;;;;;8.02;4.18;;;17.00;63.20;;;;;;6151530;23;20017;-63
2021/05/30 04:01:00;;;;;;;5.30;3.88;;;17.00;63.30;;;;;;6151393;23;20024;-63
2021/05/30 04:03:26;;;;;;;6.97;3.78;;;17.00;63.40;;;;;;6151796;23;20135;-63
2021/05/30 04:05:52;;;;;;;8.23;4.20;;;17.10;63.30;;;;;;6154570;23;20021;-63
2021/05/30 04:08:18;;;;;;;7.30;4.38;;;17.10;63.20;;;;;;6154323;23;20037;-63
2021/05/30 04:10:44;;;;;;;8.15;4.18;;;17.10;63.00;;;;;;6151640;23;20044;-63
2021/05/30 04:13:11;;;;;;;8.00;4.13;;;17.10;62.80;;;;;;6152344;23;20017;-63
2021/05/30 04:15:37;;;;;;;7.72;4.20;;;17.10;62.80;;;;;;6152274;23;20168;-63
2021/05/30 04:18:03;;;;;;;8.73;4.60;;;17.10;62.90;;;;;;6153771;23;20024;-63
2021/05/30 04:20:29;;;;;;;8.75;4.43;;;17.00;63.50;;;;;;6151376;23;20117;-63
2021/05/30 04:22:55;;;;;;;6.63;3.90;;;17.10;63.20;;;;;;6152074;23;20017;-63
2021/05/30 04:25:21;;;;;;;10.50;4.93;;;17.10;62.90;;;;;;6153940;23;20030;-63
2021/05/30 04:27:47;;;;;;;10.05;4.40;;;17.00;62.10;;;;;;6128106;23;20014;-63
2021/05/30 04:30:14;;;;;;;7.20;4.10;;;16.70;62.50;;;;;;6151053;23;20048;-63
2021/05/30 04:32:41;;;;;;;8.35;3.83;;;16.60;63.60;;;;;;6152813;23;20049;-63
2021/05/30 04:35:07;;;;;;;9.57;5.50;;;16.50;63.60;;;;;;6151901;23;20017;-64
2021/05/30 04:37:33;;;;;;;7.05;4.00;;;16.60;63.20;;;;;;6151635;23;20040;-64
2021/05/30 04:39:59;;;;;;;6.47;3.85;;;16.70;63.50;;;;;;6151823;23;20510;-65
2021/05/30 04:42:25;;;;;;;5.97;3.80;;;16.80;63.50;;;;;;6150886;23;20435;-64
2021/05/30 04:44:51;;;;;;;7.75;4.03;;;16.90;63.30;;;;;;6152613;23;20393;-64
2021/05/30 04:47:16;;;;;;;9.02;4.10;;;16.90;63.10;;;;;;6152528;23;20017;-64
2021/05/30 04:49:43;;;;;;;7.25;4.05;;;17.00;62.80;;;;;;6151346;23;20014;-65
2021/05/30 04:52:10;;;;;;;12.93;3.90;;;16.90;62.70;;;;;;6150734;23;20029;-64
2021/05/30 04:54:36;;;;;;;7.88;3.80;;;16.80;63.10;;;;;;6151091;23;20056;-64
2021/05/30 04:57:03;;;;;;;7.25;3.83;;;16.80;63.20;;;;;;6152433;23;20018;-64
2021/05/30 04:59:30;;;;;;;9.27;4.40;;;16.80;62.80;;;;;;6152854;23;20475;-63
2021/05/30 05:01:56;;;;;;;8.20;3.72;;;16.60;63.50;;;;;;6151771;23;20029;-64
2021/05/30 05:04:23;;;;;;;10.15;4.05;;;16.60;64.00;;;;;;6150745;23;20022;-63
2021/05/30 05:06:49;;;;;;;5.93;3.45;;;16.70;63.80;;;;;;6151783;23;20072;-64
2021/05/30 05:09:15;;;;;;;7.00;3.70;;;16.70;63.40;;;;;;6151846;23;20447;-63
2021/05/30 05:11:41;;;;;;;6.57;3.20;;;16.80;63.40;;;;;;6151682;23;20044;-65
2021/05/30 05:14:07;;;;;;;9.93;4.13;;;16.90;63.10;;;;;;6150893;23;20010;-63
2021/05/30 05:16:34;;;;;;;6.75;3.38;;;17.00;62.60;;;;;;6125663;23;20363;-63
2021/05/30 05:19:00;;;;;;;7.95;3.60;;;17.10;62.50;;;;;;6150556;23;20021;-64
2021/05/30 05:21:26;;;;;;;5.72;3.55;;;17.10;62.60;;;;;;6150954;23;20014;-62
2021/05/30 05:23:54;;;;;;;6.45;3.20;;;17.10;63.10;;;;;;6127181;23;20339;-63
2021/05/30 05:26:20;;;;;;;5.03;3.42;;;17.20;62.70;;;;;;6151851;23;20451;-63
2021/05/30 05:28:46;;;;;;;10.60;5.20;;;17.20;63.00;;;;;;6150295;23;20017;-64
2021/05/30 05:31:11;;;;;;;6.25;4.00;;;17.10;62.20;;;;;;6151487;23;20674;-65
2021/05/30 05:33:37;;;;;;;6.60;3.65;;;17.00;63.00;;;;;;6152078;23;20022;-64
2021/05/30 05:36:03;;;;;;;9.85;4.72;;;17.00;63.50;;;;;;6150969;23;20014;-65
2021/05/30 05:38:30;;;;;;;8.85;3.75;;;17.00;62.80;;;;;;6124187;23;20051;-65
2021/05/30 05:40:56;;;;;;;8.20;3.75;;;17.00;63.50;;;;;;6150761;23;20018;-64
2021/05/30 05:43:22;;;;;;;8.55;3.78;;;17.10;63.20;;;;;;6150502;23;20021;-65
2021/05/30 05:45:48;;;;;;;10.35;4.15;;;17.20;62.90;;;;;;6125957;23;20383;-64
2021/05/30 05:48:16;;;;;;;7.53;3.53;;;17.20;61.80;;;;;;6150164;23;20092;-63
2021/05/30 05:50:46;;;;;;;9.75;3.58;;;17.00;62.10;;;;;;6150473;23;20017;-63
2021/05/30 05:53:12;;;;;;;9.23;4.28;;;16.80;61.80;;;;;;6150387;23;20025;-63
2021/05/30 05:55:38;;;;;;;7.75;3.30;;;16.80;61.90;;;;;;6152221;23;20013;-65
2021/05/30 05:58:04;;;;;;;7.88;3.50;;;16.80;62.30;;;;;;6125025;23;20031;-63
2021/05/30 06:00:31;;;;;;;10.23;3.70;;;16.80;62.40;;;;;;6150135;23;20026;-64
2021/05/30 06:02:58;;;;;;;8.07;3.88;;;16.80;62.00;;;;;;6150468;23;20021;-64
2021/05/30 06:05:25;;;;;;;9.80;3.67;;;16.80;62.00;;;;;;6123834;23;20027;-64
2021/05/30 06:07:53;;;;;;;7.57;3.67;;;16.80;62.20;;;;;;6150570;23;20100;-63
2021/05/30 06:10:23;;;;;;;9.38;3.95;;;16.70;62.30;;;;;;6150759;23;20013;-64
2021/05/30 06:12:51;;;;;;;8.55;3.38;;;16.70;61.80;;;;;;6150124;23;20064;-65
2021/05/30 06:15:19;;;;;;;10.70;4.07;;;16.90;62.10;;;;;;6150145;23;20343;-64
2021/05/30 06:17:50;;;;;;;9.70;4.40;;;17.00;61.60;;;;;;6150315;23;20021;-64
2021/05/30 06:20:16;;;;;;;9.38;4.20;;;17.10;61.30;;;;;;6150383;23;20089;-63
2021/05/30 06:22:42;;;;;;;8.18;3.78;;;17.20;61.70;;;;;;6149986;23;20446;-64
2021/05/30 06:25:08;;;;;;;11.75;3.72;;;17.30;61.70;;;;;;6150860;23;20017;-63
2021/05/30 06:27:34;;;;;;;15.70;3.33;;;17.50;61.30;;;;;;6149653;23;20017;-66
2021/05/30 06:29:59;;;;;;;8.85;3.60;;;17.50;61.30;;;;;;6151310;23;20010;-67
2021/05/30 06:32:25;;;;;;;12.95;4.70;;;17.60;61.20;;;;;;6124901;23;20017;-66
2021/05/30 06:34:51;;;;;;;12.23;3.65;;;17.60;60.60;;;;;;6151468;23;20017;-69
2021/05/30 06:37:17;;;;;;;6.97;3.65;;;17.70;60.50;;;;;;6151569;23;20022;-65
2021/05/30 06:39:43;;;;;;;7.63;3.75;;;17.80;60.60;;;;;;6149820;23;20096;-65
2021/05/30 06:42:09;;;;;;;8.82;3.78;;;17.80;60.70;;;;;;6154236;23;20024;-63
2021/05/30 06:44:35;;;;;;;8.60;3.70;;;17.80;59.20;;;;;;6153883;23;20017;-64
2021/05/30 06:47:01;;;;;;;9.27;3.67;;;17.70;59.20;;;;;;6127855;23;20041;-64
2021/05/30 06:49:26;;;;;;;9.55;3.97;;;17.70;59.70;;;;;;6152377;23;20025;-64
2021/05/30 06:51:52;;;;;;;6.22;3.28;;;17.80;59.50;;;;;;6152148;23;20022;-64
2021/05/30 06:54:19;;;;;;;7.63;3.53;;;18.10;59.00;;;;;;6153285;23;20009;-64
2021/05/30 06:56:45;;;;;;;10.73;4.13;;;18.30;58.80;;;;;;6151673;23;20439;-64
2021/05/30 06:59:11;;;;;;;7.25;3.17;;;18.30;57.60;;;;;;6154082;23;20049;-64
2021/05/30 07:01:37;;;;;;;8.93;3.78;;;18.40;57.60;;;;;;6153507;23;20020;-64
2021/05/30 07:04:04;;;;;;;9.13;3.50;;;18.70;56.90;;;;;;6152730;23;20128;-59
2021/05/30 07:06:30;;;;;;;10.68;3.90;;;19.00;56.20;;;;;;6126691;23;20045;-60
2021/05/30 07:09:04;;;;;;;11.38;3.75;;;19.20;55.70;;;;;;6152178;23;20013;-60
2021/05/30 07:11:30;;;;;;;8.60;4.15;;;19.40;55.70;;;;;;6152033;23;20017;-64
2021/05/30 07:13:56;;;;;;;8.18;3.40;;;19.50;55.10;;;;;;6151962;23;20021;-64
2021/05/30 07:16:22;;;;;;;8.23;3.70;;;19.70;55.10;;;;;;6152722;23;20028;-64
2021/05/30 07:18:48;;;;;;;7.57;3.50;;;19.90;54.70;;;;;;6153243;23;20049;-65
2021/05/30 07:21:13;;;;;;;6.63;3.08;;;20.10;54.20;;;;;;6152660;23;20486;-64
2021/05/30 07:23:39;;;;;;;8.07;3.22;;;20.40;54.10;;;;;;6125431;23;20018;-64
2021/05/30 07:26:05;;;;;;;8.80;3.55;;;20.40;53.10;;;;;;6152431;23;20013;-63
2021/05/30 07:28:32;;;;;;;6.22;3.08;;;20.50;53.40;;;;;;6151432;23;20041;-63
2021/05/30 07:30:59;;;;;;;5.00;2.97;;;20.60;54.30;;;;;;6151806;23;20096;-64
2021/05/30 07:33:27;;;;;;;9.63;3.15;;;20.70;54.40;;;;;;6151145;23;20013;-64
2021/05/30 07:35:53;;;;;;;11.20;3.55;;;20.80;54.20;;;;;;6151010;23;20021;-65
2021/05/30 07:38:20;;;;;;;7.18;3.33;;;21.10;53.60;;;;;;6124995;23;20017;-66
2021/05/30 07:40:46;;;;;;;8.35;3.50;;;21.20;52.10;;;;;;6150881;23;20013;-63
2021/05/30 07:43:12;;;;;;;9.77;3.88;;;21.20;52.40;;;;;;6150641;23;20025;-65
2021/05/30 07:45:38;;;;;;;7.10;3.25;;;21.40;52.00;;;;;;6151015;23;20092;-64
2021/05/30 07:48:04;;;;;;;7.75;3.83;;;21.50;51.60;;;;;;6151063;23;20018;-70
2021/05/30 07:50:30;;;;;;;7.78;3.25;;;21.60;52.70;;;;;;6151011;23;20024;-70
2021/05/30 07:52:59;;;;;;;7.55;3.25;;;21.70;52.10;;;;;;6150988;23;20021;-72
2021/05/30 07:55:27;;;;;;;13.60;4.30;;;21.80;51.70;;;;;;6152500;23;20436;-65
2021/05/30 07:57:54;;;;;;;7.28;3.42;;;21.90;51.30;;;;;;6150819;23;20443;-67
2021/05/30 08:00:20;;;;;;;9.52;3.85;;;21.80;51.40;;;;;;6151101;23;20025;-66
2021/05/30 08:02:48;;;;;;;7.22;3.47;;;21.90;50.70;;;;;;6151790;23;20017;-66
2021/05/30 08:05:19;;;;;;;7.75;3.70;;;22.00;50.90;;;;;;6152042;23;20017;-65
2021/05/30 08:07:45;;;;;;;9.35;3.75;;;22.00;51.00;;;;;;6151451;23;20013;-65
2021/05/30 08:10:11;;;;;;;7.03;3.55;;;22.30;50.90;;;;;;6151443;23;20009;-65
2021/05/30 08:12:37;;;;;;;7.50;3.40;;;22.50;50.70;;;;;;6151205;23;20009;-64
2021/05/30 08:15:05;;;;;;;10.00;4.65;;;22.70;50.00;;;;;;6153051;23;20080;-65
2021/05/30 08:17:31;;;;;;;7.82;3.50;;;22.80;50.00;;;;;;6150838;23;20013;-64
2021/05/30 08:20:18;;;;;;;10.48;4.25;;;22.80;49.80;;;;;;6151187;23;20763;-65
2021/05/30 08:22:44;;;;;;;6.78;3.45;;;22.70;49.10;;;;;;6152710;23;20068;-66
2021/05/30 08:25:11;;;;;;;10.52;3.78;;;22.70;49.30;;;;;;6152275;23;20716;-66
2021/05/30 08:27:36;;;;;;;10.65;4.22;;;22.80;49.40;;;;;;6151540;23;20466;-66
2021/05/30 08:30:07;;;;;;;9.95;3.65;;;22.80;48.20;;;;;;6153364;23;20018;-65
2021/05/30 08:32:33;;;;;;;9.40;3.83;;;22.80;48.40;;;;;;6125364;23;20017;-66
2021/05/30 08:34:59;;;;;;;8.27;3.80;;;22.70;48.70;;;;;;6150862;23;20424;-67
2021/05/30 08:37:24;;;;;;;7.68;3.95;;;22.60;49.30;;;;;;6152313;23;20018;-66
2021/05/30 08:39:51;;;;;;;8.43;4.88;;;22.60;49.40;;;;;;6151220;23;20070;-65
2021/05/30 08:42:21;;;;;;;10.93;4.90;;;22.60;49.30;;;;;;6151441;23;20467;-66
2021/05/30 08:44:50;;;;;;;9.35;4.90;;;22.50;47.90;;;;;;6150962;23;20091;-66
2021/05/30 08:47:21;;;;;;;8.55;3.40;;;22.50;48.10;;;;;;6151854;23;20088;-66
2021/05/30 08:49:48;;;;;;;6.05;3.30;;;22.50;48.80;;;;;;6152454;23;20086;-67
2021/05/30 08:52:15;;;;;;;11.32;4.32;;;22.40;49.00;;;;;;6150446;23;20463;-66
2021/05/30 08:54:41;;;;;;;10.23;4.00;;;22.50;49.10;;;;;;6151149;23;20068;-66
2021/05/30 08:57:07;;;;;;;12.98;4.65;;;22.70;49.60;;;;;;6150812;23;20017;-66
2021/05/30 08:59:33;;;;;;;9.93;4.47;;;22.80;48.40;;;;;;6152596;23;20341;-65
2021/05/30 09:02:10;;;;;;;11.95;4.72;;;22.80;48.40;;;;;;6152804;23;20093;-65
2021/05/30 09:04:59;;;;;;;12.65;4.63;;;22.90;48.50;;;;;;6152345;23;20017;-66
2021/05/30 09:07:47;;;;;;;16.50;5.18;;;22.80;48.20;;;;;;6151358;23;20017;-64
2021/05/30 09:10:22;;;;;;;8.70;4.20;;;22.70;48.80;;;;;;6151412;23;20447;-65
2021/05/30 09:13:10;;;;;;;8.30;3.63;;;22.70;49.10;;;;;;6151625;23;20013;-65
2021/05/30 09:16:06;;;;;;;12.38;4.63;;;22.80;49.30;;;;;;6124255;23;20448;-65
2021/05/30 09:18:34;;;;;;;8.00;3.58;;;22.80;48.80;;;;;;6150319;23;20018;-64
2021/05/30 09:21:03;;;;;;;9.68;4.20;;;22.70;49.10;;;;;;6150748;23;20018;-63
2021/05/30 09:23:33;;;;;;;12.45;4.45;;;22.70;49.80;;;;;;6148692;23;20478;-63
2021/05/30 09:26:20;;;;;;;7.93;4.05;;;22.60;49.00;;;;;;6142218;23;20538;-63
2021/05/30 09:29:02;;;;;;;11.27;4.95;;;22.50;49.00;;;;;;6142803;23;20150;-63
2021/05/30 09:31:28;;;;;;;10.48;4.78;;;22.20;48.80;;;;;;6147592;23;20014;-64
2021/05/30 09:33:54;;;;;;;10.45;3.83;;;22.00;50.30;;;;;;6149806;23;20116;-64
2021/05/30 09:36:23;;;;;;;7.32;3.95;;;22.00;50.60;;;;;;6148757;23;20052;-64
2021/05/30 09:39:03;;;;;;;9.88;4.68;;;22.00;50.80;;;;;;6149354;23;20092;-63
2021/05/30 09:41:29;;;;;;;12.02;4.60;;;22.20;50.30;;;;;;6150899;23;20013;-63
2021/05/30 09:43:55;;;;;;;11.50;4.80;;;22.20;49.40;;;;;;6150217;23;20020;-64
2021/05/30 09:46:31;;;;;;;9.27;4.07;;;22.10;49.40;;;;;;6150347;23;20014;-64
2021/05/30 09:48:58;;;;;;;9.88;4.10;;;22.00;49.60;;;;;;6150287;23;20033;-63
2021/05/30 09:51:39;;;;;;;13.07;3.90;;;22.00;49.90;;;;;;6149765;23;20020;-64
2021/05/30 09:54:06;;;;;;;11.57;3.70;;;21.90;49.30;;;;;;6151501;23;20522;-64
2021/05/30 09:56:42;;;;;;;10.60;4.97;;;21.60;49.40;;;;;;6123926;23;20025;-63
2021/05/30 09:59:16;;;;;;;8.77;3.25;;;21.30;49.80;;;;;;6152186;23;20019;-63
2021/05/30 10:01:49;;;;;;;13.13;4.50;;;21.10;50.00;;;;;;6148916;23;20474;-64
2021/05/30 10:04:16;;;;;;;8.77;3.15;;;20.80;50.40;;;;;;6151951;23;20040;-63
2021/05/30 10:06:42;;;;;;;8.82;3.88;;;20.50;50.90;;;;;;6149480;23;20104;-65
2021/05/30 10:09:10;;;;;;;13.90;4.00;;;20.20;52.00;;;;;;6125134;23;20017;-65
2021/05/30 10:11:37;;;;;;;7.35;3.38;;;20.10;52.80;;;;;;6153023;23;20009;-65
2021/05/30 10:14:04;;;;;;;9.75;3.53;;;20.00;52.80;;;;;;6151474;23;20027;-65
2021/05/30 10:16:31;;;;;;;9.85;3.85;;;19.90;52.80;;;;;;6151850;23;20014;-67
2021/05/30 10:19:07;;;;;;;11.52;4.50;;;19.90;53.40;;;;;;6154396;23;20019;-67
2021/05/30 10:21:35;;;;;;;11.32;3.75;;;19.90;53.00;;;;;;6153244;23;20085;-65
2021/05/30 10:24:01;;;;;;;8.82;4.10;;;19.90;53.10;;;;;;6151496;23;20092;-65
2021/05/30 10:26:27;;;;;;;8.00;4.13;;;19.70;53.00;;;;;;6154501;23;20088;-65
2021/05/30 10:28:56;;;;;;;11.43;5.15;;;19.60;53.30;;;;;;6153386;23;20096;-65
2021/05/30 10:31:25;;;;;;;9.20;4.07;;;19.70;53.60;;;;;;6126372;23;20013;-66
2021/05/30 10:34:11;;;;;;;8.13;3.33;;;19.60;53.60;;;;;;6153745;23;20017;-65
2021/05/30 10:36:41;;;;;;;13.77;3.20;;;19.60;53.90;;;;;;6151874;23;20025;-65
2021/05/30 10:39:29;;;;;;;7.32;3.72;;;19.50;53.70;;;;;;6154002;23;20462;-65
2021/05/30 10:42:14;;;;;;;7.20;3.25;;;19.60;53.50;;;;;;6153318;23;20014;-65
2021/05/30 10:45:01;;;;;;;10.07;2.90;;;19.60;53.90;;;;;;6150555;23;20435;-65
2021/05/30 10:47:55;;;;;;;9.20;3.25;;;19.60;53.40;;;;;;6154169;23;20014;-65
2021/05/30 10:50:21;;;;;;;9.23;3.88;;;19.50;53.10;;;;;;6109117;23;20056;-64
2021/05/30 10:52:48;;;;;;;8.63;3.00;;;19.40;53.60;;;;;;6152484;23;20065;-67
2021/05/30 10:55:26;;;;;;;12.32;4.75;;;19.40;54.10;;;;;;6154616;23;20018;-66
2021/05/30 10:57:52;;;;;;;11.73;3.65;;;19.40;55.70;;;;;;6150387;23;20068;-65
2021/05/30 11:00:21;;;;;;;10.23;4.22;;;19.50;54.50;;;;;;6151206;23;20018;-65
2021/05/30 11:03:11;;;;;;;7.43;3.53;;;19.40;54.20;;;;;;6150990;23;20028;-65
2021/05/30 11:05:43;;;;;;;8.30;3.30;;;19.40;54.00;;;;;;6151660;23;20036;-66
2021/05/30 11:08:29;;;;;;;8.43;3.67;;;19.20;54.50;;;;;;6151662;23;20014;-66
2021/05/30 11:11:19;;;;;;;12.65;3.47;;;19.10;54.90;;;;;;6151405;23;20028;-65
2021/05/30 11:13:58;;;;;;;9.70;4.55;;;19.10;55.20;;;;;;6152534;23;20014;-65
2021/05/30 11:16:32;;;;;;;10.32;3.47;;;19.00;55.40;;;;;;6151942;23;20375;-64
2021/05/30 11:19:05;;;;;;;12.30;3.90;;;19.00;55.40;;;;;;6152765;23;20013;-65
2021/05/30 11:21:45;;;;;;;8.98;3.83;;;18.90;55.40;;;;;;6150848;23;20013;-65
2021/05/30 11:24:12;;;;;;;8.80;4.10;;;18.90;55.60;;;;;;6150850;23;20645;-64
2021/05/30 11:26:38;;;;;;;10.13;3.95;;;19.00;55.70;;;;;;6124527;23;20093;-64
2021/05/30 11:29:06;;;;;;;6.15;2.80;;;18.90;55.90;;;;;;6151519;23;20037;-64
2021/05/30 11:31:33;;;;;;;8.57;3.35;;;18.80;56.10;;;;;;6152436;23;20075;-65
2021/05/30 11:34:06;;;;;;;13.27;6.28;;;18.70;56.10;;;;;;6151744;23;20025;-64
2021/05/30 11:36:36;;;;;;;12.85;3.78;;;18.70;56.30;;;;;;6152093;23;20017;-64
2021/05/30 11:39:11;;;;;;;8.88;4.00;;;18.60;56.20;;;;;;6151056;23;20022;-64
2021/05/30 11:41:54;;;;;;;7.20;2.97;;;18.50;57.00;;;;;;6126599;23;20016;-64
2021/05/30 11:44:21;;;;;;;14.02;3.42;;;18.50;56.20;;;;;;6153525;23;20010;-64
2021/05/30 11:46:54;;;;;;;8.50;3.10;;;18.30;56.30;;;;;;6153514;23;20017;-64
2021/05/30 11:49:28;;;;;;;9.27;3.13;;;18.30;56.40;;;;;;6153136;23;20061;-65
2021/05/30 11:52:15;;;;;;;8.00;3.20;;;18.20;56.50;;;;;;6153091;23;20096;-64
2021/05/30 11:54:44;;;;;;;7.57;3.10;;;18.20;56.80;;;;;;6152996;23;20018;-64
2021/05/30 11:57:31;;;;;;;9.30;2.90;;;18.10;57.30;;;;;;6152931;23;20467;-63
2021/05/30 12:00:01;;;;;;;9.52;3.28;;;18.10;56.90;;;;;;6151329;23;20017;-64
2021/05/30 12:02:38;;;;;;;8.05;2.55;;;17.90;57.00;;;;;;6150724;23;20021;-64
2021/05/30 12:05:10;;;;;;;11.13;3.88;;;17.90;57.00;;;;;;6125777;23;20024;-64
2021/05/30 12:07:36;;;;;;;12.93;4.32;;;17.80;58.00;;;;;;6150657;23;20321;-64
2021/05/30 12:10:13;;;;;;;13.35;3.15;;;17.80;58.40;;;;;;6151777;23;20028;-64
2021/05/30 12:12:45;;;;;;;12.23;3.65;;;17.70;58.20;;;;;;6152558;23;20116;-64
2021/05/30 12:15:13;;;;;;;10.25;3.50;;;17.60;58.40;;;;;;6151721;23;20021;-64
2021/05/30 12:17:56;;;;;;;9.73;3.47;;;17.50;59.30;;;;;;6150555;23;20065;-64
2021/05/30 12:20:29;;;;;;;9.50;3.40;;;17.60;59.70;;;;;;6152655;23;20336;-64
2021/05/30 12:23:11;;;;;;;;;;;17.50;59.30;;;;;;6143506;23;20068;-64
2021/05/30 12:25:51;;;;;;;10.20;4.38;;;17.30;59.30;;;;;;6117513;23;19947;-63
2021/05/30 12:28:19;;;;;;;7.28;3.33;;;17.40;60.40;;;;;;6145091;23;20324;-63
2021/05/30 12:30:53;;;;;;;6.88;3.20;;;17.30;59.30;;;;;;6144030;23;20020;-63
2021/05/30 12:33:20;;;;;;;9.57;3.45;;;17.40;59.40;;;;;;6118300;23;20082;-64
2021/05/30 12:35:52;;;;;;;8.57;3.50;;;17.50;59.40;;;;;;6142186;23;20014;-62
2021/05/30 12:38:22;;;;;;;12.52;3.85;;;17.60;58.60;;;;;;6143884;23;20041;-64
2021/05/30 12:40:48;;;;;;;9.85;3.20;;;17.60;58.30;;;;;;6142846;23;20029;-63
2021/05/30 12:43:15;;;;;;;12.57;4.00;;;17.50;58.60;;;;;;6144743;23;20021;-63
2021/05/30 12:46:03;;;;;;;8.85;3.47;;;17.50;58.80;;;;;;6143214;23;20566;-63
2021/05/30 12:48:41;;;;;;;9.20;4.50;;;17.40;58.50;;;;;;6144594;23;20135;-63
2021/05/30 12:51:22;;;;;;;10.93;3.92;;;17.40;59.40;;;;;;6143992;23;20509;-63